sensor_id;sensor_type;location;lat;lon;timestamp;P1;durP1;ratioP1;P2;durP2;ratioP2
1336;SDS011;662;48.814;9.318;2023-03-05T00:02:04;43.13;;;27.63;;
1336;SDS011;662;48.814;9.318;2023-03-05T00:04:30;38.20;;;25.10;;
1336;SDS011;662;48.814;9.318;2023-03-05T00:06:56;38.37;;;23.20;;
1336;SDS011;662;48.814;9.318;2023-03-05T00:09:21;38.93;;;23.83;;
1336;SDS011;662;48.814;9.318;2023-03-05T00:11:47;40.43;;;24.13;;
1336;SDS011;662;48.814;9.318;2023-03-05T00:14:12;37.73;;;24.37;;
1336;SDS011;662;48.814;9.318;2023-03-05T00:16:38;39.67;;;25.80;;
1336;SDS011;662;48.814;9.318;2023-03-05T00:19:04;38.20;;;24.13;;
1336;SDS011;662;48.814;9.318;2023-03-05T00:21:32;42.53;;;24.93;;
1336;SDS011;662;48.814;9.318;2023-03-05T00:24:00;35.57;;;23.00;;
1336;SDS011;662;48.814;9.318;2023-03-05T00:26:29;45.20;;;25.23;;
1336;SDS011;662;48.814;9.318;2023-03-05T00:28:55;35.00;;;22.70;;
1336;SDS011;662;48.814;9.318;2023-03-05T00:31:23;37.93;;;23.20;;
1336;SDS011;662;48.814;9.318;2023-03-05T00:33:54;36.80;;;23.50;;
1336;SDS011;662;48.814;9.318;2023-03-05T00:36:22;40.13;;;24.83;;
1336;SDS011;662;48.814;9.318;2023-03-05T00:38:50;37.40;;;23.63;;
1336;SDS011;662;48.814;9.318;2023-03-05T00:41:16;37.00;;;23.63;;
1336;SDS011;662;48.814;9.318;2023-03-05T00:43:41;39.93;;;23.13;;
1336;SDS011;662;48.814;9.318;2023-03-05T00:46:07;36.93;;;23.67;;
1336;SDS011;662;48.814;9.318;2023-03-05T00:48:33;39.70;;;23.20;;
1336;SDS011;662;48.814;9.318;2023-03-05T00:50:59;35.90;;;23.73;;
1336;SDS011;662;48.814;9.318;2023-03-05T00:53:24;37.83;;;23.57;;
1336;SDS011;662;48.814;9.318;2023-03-05T00:55:50;42.63;;;24.20;;
1336;SDS011;662;48.814;9.318;2023-03-05T00:58:16;33.20;;;23.07;;
1336;SDS011;662;48.814;9.318;2023-03-05T01:00:42;44.30;;;24.50;;
1336;SDS011;662;48.814;9.318;2023-03-05T01:03:07;40.33;;;23.80;;
1336;SDS011;662;48.814;9.318;2023-03-05T01:05:33;38.43;;;24.27;;
1336;SDS011;662;48.814;9.318;2023-03-05T01:07:58;32.30;;;21.80;;
1336;SDS011;662;48.814;9.318;2023-03-05T01:10:24;38.37;;;23.90;;
1336;SDS011;662;48.814;9.318;2023-03-05T01:12:54;38.77;;;23.10;;
1336;SDS011;662;48.814;9.318;2023-03-05T01:15:21;36.33;;;22.80;;
1336;SDS011;662;48.814;9.318;2023-03-05T01:17:47;42.37;;;23.97;;
1336;SDS011;662;48.814;9.318;2023-03-05T01:20:14;39.30;;;24.50;;
1336;SDS011;662;48.814;9.318;2023-03-05T01:22:41;33.17;;;23.13;;
1336;SDS011;662;48.814;9.318;2023-03-05T01:25:07;35.47;;;23.50;;
1336;SDS011;662;48.814;9.318;2023-03-05T01:27:33;39.87;;;25.13;;
1336;SDS011;662;48.814;9.318;2023-03-05T01:29:58;38.53;;;24.57;;
1336;SDS011;662;48.814;9.318;2023-03-05T01:32:24;37.40;;;25.30;;
1336;SDS011;662;48.814;9.318;2023-03-05T01:34:50;40.13;;;26.20;;
1336;SDS011;662;48.814;9.318;2023-03-05T01:37:16;34.57;;;22.30;;
1336;SDS011;662;48.814;9.318;2023-03-05T01:39:41;43.33;;;24.53;;
1336;SDS011;662;48.814;9.318;2023-03-05T01:42:07;37.97;;;23.20;;
1336;SDS011;662;48.814;9.318;2023-03-05T01:44:33;35.67;;;23.10;;
1336;SDS011;662;48.814;9.318;2023-03-05T01:46:59;37.60;;;23.17;;
1336;SDS011;662;48.814;9.318;2023-03-05T01:49:26;39.87;;;23.33;;
1336;SDS011;662;48.814;9.318;2023-03-05T01:52:14;40.00;;;24.00;;
1336;SDS011;662;48.814;9.318;2023-03-05T01:54:46;38.13;;;23.27;;
1336;SDS011;662;48.814;9.318;2023-03-05T01:57:32;36.20;;;22.47;;
1336;SDS011;662;48.814;9.318;2023-03-05T02:00:06;37.90;;;23.83;;
1336;SDS011;662;48.814;9.318;2023-03-05T02:02:34;40.10;;;24.33;;
1336;SDS011;662;48.814;9.318;2023-03-05T02:05:06;38.80;;;22.53;;
1336;SDS011;662;48.814;9.318;2023-03-05T02:07:34;36.47;;;22.30;;
1336;SDS011;662;48.814;9.318;2023-03-05T02:12:43;35.80;;;23.50;;
1336;SDS011;662;48.814;9.318;2023-03-05T02:15:09;32.03;;;20.63;;
1336;SDS011;662;48.814;9.318;2023-03-05T02:17:36;39.10;;;23.30;;
1336;SDS011;662;48.814;9.318;2023-03-05T02:20:06;34.80;;;21.60;;
1336;SDS011;662;48.814;9.318;2023-03-05T02:22:37;36.13;;;22.47;;
1336;SDS011;662;48.814;9.318;2023-03-05T02:25:11;38.00;;;22.90;;
1336;SDS011;662;48.814;9.318;2023-03-05T02:30:49;37.60;;;23.13;;
1336;SDS011;662;48.814;9.318;2023-03-05T02:33:15;39.33;;;23.37;;
1336;SDS011;662;48.814;9.318;2023-03-05T02:35:42;36.50;;;22.50;;
1336;SDS011;662;48.814;9.318;2023-03-05T02:38:10;46.33;;;23.07;;
1336;SDS011;662;48.814;9.318;2023-03-05T02:40:37;36.60;;;22.27;;
1336;SDS011;662;48.814;9.318;2023-03-05T02:43:02;34.33;;;21.60;;
1336;SDS011;662;48.814;9.318;2023-03-05T02:45:28;38.67;;;23.30;;
1336;SDS011;662;48.814;9.318;2023-03-05T02:47:54;38.27;;;24.23;;
1336;SDS011;662;48.814;9.318;2023-03-05T02:50:20;37.47;;;21.70;;
1336;SDS011;662;48.814;9.318;2023-03-05T02:52:46;39.80;;;25.33;;
1336;SDS011;662;48.814;9.318;2023-03-05T02:55:11;35.70;;;23.00;;
1336;SDS011;662;48.814;9.318;2023-03-05T02:57:37;35.57;;;23.20;;
1336;SDS011;662;48.814;9.318;2023-03-05T03:00:03;38.50;;;23.70;;
1336;SDS011;662;48.814;9.318;2023-03-05T03:02:30;40.93;;;24.30;;
1336;SDS011;662;48.814;9.318;2023-03-05T03:04:56;35.17;;;22.00;;
1336;SDS011;662;48.814;9.318;2023-03-05T03:07:21;38.30;;;22.60;;
1336;SDS011;662;48.814;9.318;2023-03-05T03:09:47;36.33;;;23.20;;
1336;SDS011;662;48.814;9.318;2023-03-05T03:12:13;41.93;;;23.70;;
1336;SDS011;662;48.814;9.318;2023-03-05T03:14:39;39.00;;;23.23;;
1336;SDS011;662;48.814;9.318;2023-03-05T03:17:13;44.40;;;26.00;;
1336;SDS011;662;48.814;9.318;2023-03-05T03:19:41;41.80;;;25.90;;
1336;SDS011;662;48.814;9.318;2023-03-05T03:22:07;38.27;;;25.37;;
1336;SDS011;662;48.814;9.318;2023-03-05T03:24:35;47.87;;;27.53;;
1336;SDS011;662;48.814;9.318;2023-03-05T03:27:01;37.13;;;23.87;;
1336;SDS011;662;48.814;9.318;2023-03-05T03:29:28;43.50;;;26.00;;
1336;SDS011;662;48.814;9.318;2023-03-05T03:31:54;40.77;;;25.63;;
1336;SDS011;662;48.814;9.318;2023-03-05T03:34:20;43.17;;;24.00;;
1336;SDS011;662;48.814;9.318;2023-03-05T03:36:46;42.10;;;24.87;;
1336;SDS011;662;48.814;9.318;2023-03-05T03:39:13;39.30;;;25.50;;
1336;SDS011;662;48.814;9.318;2023-03-05T03:41:40;42.80;;;25.33;;
1336;SDS011;662;48.814;9.318;2023-03-05T03:44:06;42.17;;;24.60;;
1336;SDS011;662;48.814;9.318;2023-03-05T03:46:34;43.43;;;26.17;;
1336;SDS011;662;48.814;9.318;2023-03-05T03:49:01;46.13;;;25.20;;
1336;SDS011;662;48.814;9.318;2023-03-05T03:51:27;46.57;;;27.20;;
1336;SDS011;662;48.814;9.318;2023-03-05T03:53:52;39.90;;;24.73;;
1336;SDS011;662;48.814;9.318;2023-03-05T03:56:18;41.23;;;25.83;;
1336;SDS011;662;48.814;9.318;2023-03-05T03:58:44;41.93;;;25.57;;
1336;SDS011;662;48.814;9.318;2023-03-05T04:01:09;39.67;;;25.20;;
1336;SDS011;662;48.814;9.318;2023-03-05T04:03:35;44.50;;;26.90;;
1336;SDS011;662;48.814;9.318;2023-03-05T04:06:00;42.97;;;25.27;;
1336;SDS011;662;48.814;9.318;2023-03-05T04:08:26;46.23;;;25.63;;
1336;SDS011;662;48.814;9.318;2023-03-05T04:10:52;40.23;;;24.83;;
1336;SDS011;662;48.814;9.318;2023-03-05T04:13:17;41.20;;;26.17;;
1336;SDS011;662;48.814;9.318;2023-03-05T04:15:43;40.47;;;25.57;;
1336;SDS011;662;48.814;9.318;2023-03-05T04:18:10;41.53;;;25.60;;
1336;SDS011;662;48.814;9.318;2023-03-05T04:20:35;45.53;;;26.70;;
1336;SDS011;662;48.814;9.318;2023-03-05T04:23:01;44.00;;;26.63;;
1336;SDS011;662;48.814;9.318;2023-03-05T04:25:28;42.80;;;24.90;;
1336;SDS011;662;48.814;9.318;2023-03-05T04:27:54;42.80;;;26.17;;
1336;SDS011;662;48.814;9.318;2023-03-05T04:30:20;47.17;;;27.37;;
1336;SDS011;662;48.814;9.318;2023-03-05T04:32:45;45.20;;;26.07;;
1336;SDS011;662;48.814;9.318;2023-03-05T04:35:11;41.40;;;25.53;;
1336;SDS011;662;48.814;9.318;2023-03-05T04:37:37;37.47;;;25.40;;
1336;SDS011;662;48.814;9.318;2023-03-05T04:40:02;42.60;;;26.50;;
1336;SDS011;662;48.814;9.318;2023-03-05T04:42:29;43.93;;;26.70;;
1336;SDS011;662;48.814;9.318;2023-03-05T04:44:54;43.40;;;26.13;;
1336;SDS011;662;48.814;9.318;2023-03-05T04:47:20;44.17;;;24.83;;
1336;SDS011;662;48.814;9.318;2023-03-05T04:49:46;37.70;;;25.60;;
1336;SDS011;662;48.814;9.318;2023-03-05T04:52:12;46.60;;;28.13;;
1336;SDS011;662;48.814;9.318;2023-03-05T04:54:38;35.50;;;24.30;;
1336;SDS011;662;48.814;9.318;2023-03-05T04:57:04;42.10;;;26.47;;
1336;SDS011;662;48.814;9.318;2023-03-05T04:59:30;47.37;;;27.70;;
1336;SDS011;662;48.814;9.318;2023-03-05T05:01:56;36.27;;;24.13;;
1336;SDS011;662;48.814;9.318;2023-03-05T05:04:21;40.70;;;26.40;;
1336;SDS011;662;48.814;9.318;2023-03-05T05:06:47;43.00;;;26.10;;
1336;SDS011;662;48.814;9.318;2023-03-05T05:09:13;40.60;;;26.53;;
1336;SDS011;662;48.814;9.318;2023-03-05T05:11:39;43.20;;;27.20;;
1336;SDS011;662;48.814;9.318;2023-03-05T05:14:04;47.97;;;28.57;;
1336;SDS011;662;48.814;9.318;2023-03-05T05:16:32;53.20;;;27.47;;
1336;SDS011;662;48.814;9.318;2023-03-05T05:18:57;46.00;;;26.83;;
1336;SDS011;662;48.814;9.318;2023-03-05T05:21:23;44.63;;;27.90;;
1336;SDS011;662;48.814;9.318;2023-03-05T05:23:49;41.27;;;25.20;;
1336;SDS011;662;48.814;9.318;2023-03-05T05:26:14;49.53;;;25.50;;
1336;SDS011;662;48.814;9.318;2023-03-05T05:28:43;46.67;;;27.20;;
1336;SDS011;662;48.814;9.318;2023-03-05T05:31:10;42.40;;;25.77;;
1336;SDS011;662;48.814;9.318;2023-03-05T05:33:37;44.80;;;26.90;;
1336;SDS011;662;48.814;9.318;2023-03-05T05:36:03;42.10;;;25.23;;
1336;SDS011;662;48.814;9.318;2023-03-05T05:38:31;41.50;;;26.60;;
1336;SDS011;662;48.814;9.318;2023-03-05T05:41:01;41.80;;;25.70;;
1336;SDS011;662;48.814;9.318;2023-03-05T05:43:28;42.40;;;25.20;;
1336;SDS011;662;48.814;9.318;2023-03-05T05:45:57;43.90;;;24.90;;
1336;SDS011;662;48.814;9.318;2023-03-05T05:48:24;46.33;;;26.00;;
1336;SDS011;662;48.814;9.318;2023-03-05T05:50:50;43.27;;;24.30;;
1336;SDS011;662;48.814;9.318;2023-03-05T05:53:15;43.63;;;25.80;;
1336;SDS011;662;48.814;9.318;2023-03-05T05:55:41;45.00;;;27.00;;
1336;SDS011;662;48.814;9.318;2023-03-05T05:58:07;43.20;;;25.70;;
1336;SDS011;662;48.814;9.318;2023-03-05T06:00:32;40.33;;;24.60;;
1336;SDS011;662;48.814;9.318;2023-03-05T06:02:58;39.07;;;25.10;;
1336;SDS011;662;48.814;9.318;2023-03-05T06:05:23;40.03;;;25.10;;
1336;SDS011;662;48.814;9.318;2023-03-05T06:07:49;38.10;;;26.23;;
1336;SDS011;662;48.814;9.318;2023-03-05T06:10:15;43.40;;;27.10;;
1336;SDS011;662;48.814;9.318;2023-03-05T06:12:40;40.13;;;25.67;;
1336;SDS011;662;48.814;9.318;2023-03-05T06:15:06;42.20;;;26.40;;
1336;SDS011;662;48.814;9.318;2023-03-05T06:17:32;44.87;;;26.47;;
1336;SDS011;662;48.814;9.318;2023-03-05T06:19:58;43.80;;;26.40;;
1336;SDS011;662;48.814;9.318;2023-03-05T06:22:25;39.97;;;26.10;;
1336;SDS011;662;48.814;9.318;2023-03-05T06:24:51;42.80;;;27.07;;
1336;SDS011;662;48.814;9.318;2023-03-05T06:27:17;37.50;;;23.90;;
1336;SDS011;662;48.814;9.318;2023-03-05T06:29:42;41.10;;;24.20;;
1336;SDS011;662;48.814;9.318;2023-03-05T06:32:08;43.43;;;25.30;;
1336;SDS011;662;48.814;9.318;2023-03-05T06:34:33;42.50;;;24.00;;
1336;SDS011;662;48.814;9.318;2023-03-05T06:36:59;40.20;;;25.30;;
1336;SDS011;662;48.814;9.318;2023-03-05T06:39:28;38.13;;;23.10;;
1336;SDS011;662;48.814;9.318;2023-03-05T06:41:55;38.60;;;23.03;;
1336;SDS011;662;48.814;9.318;2023-03-05T06:44:21;37.87;;;22.93;;
1336;SDS011;662;48.814;9.318;2023-03-05T06:46:47;32.40;;;20.63;;
1336;SDS011;662;48.814;9.318;2023-03-05T06:49:12;34.33;;;20.40;;
1336;SDS011;662;48.814;9.318;2023-03-05T06:51:39;33.20;;;21.87;;
1336;SDS011;662;48.814;9.318;2023-03-05T06:54:06;39.20;;;22.93;;
1336;SDS011;662;48.814;9.318;2023-03-05T06:56:34;38.07;;;23.43;;
1336;SDS011;662;48.814;9.318;2023-03-05T06:59:01;42.27;;;25.00;;
1336;SDS011;662;48.814;9.318;2023-03-05T07:01:26;37.87;;;23.47;;
1336;SDS011;662;48.814;9.318;2023-03-05T07:03:53;38.33;;;23.77;;
1336;SDS011;662;48.814;9.318;2023-03-05T07:06:19;36.83;;;22.43;;
1336;SDS011;662;48.814;9.318;2023-03-05T07:08:46;50.63;;;23.30;;
1336;SDS011;662;48.814;9.318;2023-03-05T07:11:13;39.77;;;22.50;;
1336;SDS011;662;48.814;9.318;2023-03-05T07:13:41;34.17;;;22.83;;
1336;SDS011;662;48.814;9.318;2023-03-05T07:16:08;38.13;;;22.37;;
1336;SDS011;662;48.814;9.318;2023-03-05T07:18:37;35.37;;;19.43;;
1336;SDS011;662;48.814;9.318;2023-03-05T07:21:03;28.67;;;18.30;;
1336;SDS011;662;48.814;9.318;2023-03-05T07:23:29;31.63;;;18.37;;
1336;SDS011;662;48.814;9.318;2023-03-05T07:25:55;24.73;;;15.23;;
1336;SDS011;662;48.814;9.318;2023-03-05T07:28:21;25.50;;;16.30;;
1336;SDS011;662;48.814;9.318;2023-03-05T07:30:57;29.77;;;15.97;;
1336;SDS011;662;48.814;9.318;2023-03-05T07:33:24;30.03;;;15.57;;
1336;SDS011;662;48.814;9.318;2023-03-05T07:35:50;24.77;;;17.20;;
1336;SDS011;662;48.814;9.318;2023-03-05T07:38:16;29.80;;;15.70;;
1336;SDS011;662;48.814;9.318;2023-03-05T07:40:42;26.00;;;15.67;;
1336;SDS011;662;48.814;9.318;2023-03-05T07:43:08;25.67;;;15.27;;
1336;SDS011;662;48.814;9.318;2023-03-05T07:45:33;25.77;;;14.33;;
1336;SDS011;662;48.814;9.318;2023-03-05T07:48:02;25.70;;;14.67;;
1336;SDS011;662;48.814;9.318;2023-03-05T07:50:28;26.17;;;15.53;;
1336;SDS011;662;48.814;9.318;2023-03-05T07:52:54;23.73;;;14.80;;
1336;SDS011;662;48.814;9.318;2023-03-05T07:55:20;20.37;;;13.60;;
1336;SDS011;662;48.814;9.318;2023-03-05T07:57:45;25.20;;;15.63;;
1336;SDS011;662;48.814;9.318;2023-03-05T08:00:11;26.57;;;15.17;;
1336;SDS011;662;48.814;9.318;2023-03-05T08:02:37;23.97;;;14.47;;
1336;SDS011;662;48.814;9.318;2023-03-05T08:05:03;29.33;;;16.10;;
1336;SDS011;662;48.814;9.318;2023-03-05T08:07:33;35.37;;;19.90;;
1336;SDS011;662;48.814;9.318;2023-03-05T08:10:04;35.10;;;21.23;;
1336;SDS011;662;48.814;9.318;2023-03-05T08:12:33;29.37;;;20.30;;
1336;SDS011;662;48.814;9.318;2023-03-05T08:14:59;34.80;;;17.90;;
1336;SDS011;662;48.814;9.318;2023-03-05T08:17:25;29.37;;;16.57;;
1336;SDS011;662;48.814;9.318;2023-03-05T08:19:51;26.50;;;16.23;;
1336;SDS011;662;48.814;9.318;2023-03-05T08:22:18;26.37;;;16.63;;
1336;SDS011;662;48.814;9.318;2023-03-05T08:24:44;24.50;;;15.30;;
1336;SDS011;662;48.814;9.318;2023-03-05T08:27:10;31.93;;;15.80;;
1336;SDS011;662;48.814;9.318;2023-03-05T08:29:36;23.20;;;14.67;;
1336;SDS011;662;48.814;9.318;2023-03-05T08:32:01;26.13;;;15.03;;
1336;SDS011;662;48.814;9.318;2023-03-05T08:34:27;28.00;;;14.47;;
1336;SDS011;662;48.814;9.318;2023-03-05T08:36:53;26.60;;;15.03;;
1336;SDS011;662;48.814;9.318;2023-03-05T08:39:18;26.47;;;16.20;;
1336;SDS011;662;48.814;9.318;2023-03-05T08:41:44;25.30;;;15.57;;
1336;SDS011;662;48.814;9.318;2023-03-05T08:44:10;26.00;;;16.10;;
1336;SDS011;662;48.814;9.318;2023-03-05T08:46:37;23.33;;;14.57;;
1336;SDS011;662;48.814;9.318;2023-03-05T08:49:04;27.57;;;15.17;;
1336;SDS011;662;48.814;9.318;2023-03-05T08:51:31;25.73;;;15.27;;
1336;SDS011;662;48.814;9.318;2023-03-05T08:53:57;24.03;;;15.33;;
1336;SDS011;662;48.814;9.318;2023-03-05T08:56:24;29.47;;;17.83;;
1336;SDS011;662;48.814;9.318;2023-03-05T08:58:52;31.57;;;20.10;;
1336;SDS011;662;48.814;9.318;2023-03-05T09:01:18;24.60;;;15.93;;
1336;SDS011;662;48.814;9.318;2023-03-05T09:03:44;30.57;;;16.90;;
1336;SDS011;662;48.814;9.318;2023-03-05T09:06:09;23.83;;;14.90;;
1336;SDS011;662;48.814;9.318;2023-03-05T09:08:39;25.03;;;15.00;;
1336;SDS011;662;48.814;9.318;2023-03-05T09:11:06;25.87;;;16.30;;
1336;SDS011;662;48.814;9.318;2023-03-05T09:13:34;25.00;;;15.43;;
1336;SDS011;662;48.814;9.318;2023-03-05T09:16:01;22.93;;;15.60;;
1336;SDS011;662;48.814;9.318;2023-03-05T09:18:29;25.30;;;15.40;;
1336;SDS011;662;48.814;9.318;2023-03-05T09:20:55;26.10;;;13.80;;
1336;SDS011;662;48.814;9.318;2023-03-05T09:23:22;27.67;;;16.13;;
1336;SDS011;662;48.814;9.318;2023-03-05T09:25:48;26.30;;;15.67;;
1336;SDS011;662;48.814;9.318;2023-03-05T09:28:15;30.23;;;16.30;;
1336;SDS011;662;48.814;9.318;2023-03-05T09:30:41;27.83;;;17.80;;
1336;SDS011;662;48.814;9.318;2023-03-05T09:33:07;23.50;;;15.30;;
1336;SDS011;662;48.814;9.318;2023-03-05T09:35:33;25.30;;;14.30;;
1336;SDS011;662;48.814;9.318;2023-03-05T09:37:59;31.27;;;15.90;;
1336;SDS011;662;48.814;9.318;2023-03-05T09:40:25;26.73;;;14.70;;
1336;SDS011;662;48.814;9.318;2023-03-05T09:43:15;22.80;;;14.83;;
1336;SDS011;662;48.814;9.318;2023-03-05T09:46:04;24.57;;;15.20;;
1336;SDS011;662;48.814;9.318;2023-03-05T09:48:50;27.50;;;15.23;;
1336;SDS011;662;48.814;9.318;2023-03-05T09:51:21;23.00;;;13.70;;
1336;SDS011;662;48.814;9.318;2023-03-05T09:53:54;25.47;;;14.43;;
1336;SDS011;662;48.814;9.318;2023-03-05T09:56:49;24.97;;;14.97;;
1336;SDS011;662;48.814;9.318;2023-03-05T09:59:28;24.70;;;14.63;;
1336;SDS011;662;48.814;9.318;2023-03-05T10:02:13;23.77;;;14.27;;
1336;SDS011;662;48.814;9.318;2023-03-05T10:07:29;23.37;;;14.50;;
1336;SDS011;662;48.814;9.318;2023-03-05T10:10:09;22.83;;;14.63;;
1336;SDS011;662;48.814;9.318;2023-03-05T10:19:01;22.80;;;14.97;;
1336;SDS011;662;48.814;9.318;2023-03-05T10:29:03;23.87;;;16.00;;
1336;SDS011;662;48.814;9.318;2023-03-05T10:37:11;23.87;;;14.50;;
1336;SDS011;662;48.814;9.318;2023-03-05T10:45:33;24.47;;;14.90;;
1336;SDS011;662;48.814;9.318;2023-03-05T10:48:11;21.40;;;14.20;;
1336;SDS011;662;48.814;9.318;2023-03-05T10:50:49;24.00;;;15.97;;
1336;SDS011;662;48.814;9.318;2023-03-05T10:53:30;20.53;;;12.93;;
1336;SDS011;662;48.814;9.318;2023-03-05T10:56:16;24.33;;;14.70;;
1336;SDS011;662;48.814;9.318;2023-03-05T10:58:45;26.20;;;15.93;;
1336;SDS011;662;48.814;9.318;2023-03-05T11:06:35;23.77;;;14.50;;
1336;SDS011;662;48.814;9.318;2023-03-05T11:09:24;22.60;;;14.40;;
1336;SDS011;662;48.814;9.318;2023-03-05T11:14:31;22.63;;;14.87;;
1336;SDS011;662;48.814;9.318;2023-03-05T11:16:58;22.60;;;15.93;;
1336;SDS011;662;48.814;9.318;2023-03-05T11:19:29;25.33;;;15.43;;
1336;SDS011;662;48.814;9.318;2023-03-05T11:24:43;26.97;;;17.00;;
1336;SDS011;662;48.814;9.318;2023-03-05T11:27:33;23.77;;;16.20;;
1336;SDS011;662;48.814;9.318;2023-03-05T11:30:00;23.00;;;15.50;;
1336;SDS011;662;48.814;9.318;2023-03-05T11:32:28;24.27;;;15.73;;
1336;SDS011;662;48.814;9.318;2023-03-05T11:34:55;23.83;;;15.83;;
1336;SDS011;662;48.814;9.318;2023-03-05T11:42:34;27.57;;;17.70;;
1336;SDS011;662;48.814;9.318;2023-03-05T11:45:04;26.30;;;15.90;;
1336;SDS011;662;48.814;9.318;2023-03-05T11:53:12;24.20;;;17.00;;
1336;SDS011;662;48.814;9.318;2023-03-05T11:55:48;25.30;;;17.40;;
1336;SDS011;662;48.814;9.318;2023-03-05T12:00:55;29.20;;;17.83;;
1336;SDS011;662;48.814;9.318;2023-03-05T12:03:25;25.87;;;16.30;;
1336;SDS011;662;48.814;9.318;2023-03-05T12:05:56;28.07;;;17.10;;
1336;SDS011;662;48.814;9.318;2023-03-05T12:08:30;22.47;;;16.70;;
1336;SDS011;662;48.814;9.318;2023-03-05T12:11:00;23.10;;;15.10;;
1336;SDS011;662;48.814;9.318;2023-03-05T12:13:34;23.50;;;16.00;;
1336;SDS011;662;48.814;9.318;2023-03-05T12:16:07;21.90;;;14.53;;
1336;SDS011;662;48.814;9.318;2023-03-05T12:21:06;22.90;;;15.10;;
1336;SDS011;662;48.814;9.318;2023-03-05T12:23:51;20.37;;;14.83;;
1336;SDS011;662;48.814;9.318;2023-03-05T12:26:52;20.20;;;14.13;;
1336;SDS011;662;48.814;9.318;2023-03-05T12:29:26;22.80;;;14.03;;
1336;SDS011;662;48.814;9.318;2023-03-05T12:47:33;25.57;;;15.47;;
1336;SDS011;662;48.814;9.318;2023-03-05T12:50:00;21.47;;;14.20;;
1336;SDS011;662;48.814;9.318;2023-03-05T12:52:27;24.60;;;14.73;;
1336;SDS011;662;48.814;9.318;2023-03-05T12:57:27;19.43;;;14.80;;
1336;SDS011;662;48.814;9.318;2023-03-05T13:00:03;21.43;;;13.73;;
1336;SDS011;662;48.814;9.318;2023-03-05T13:02:36;19.53;;;13.97;;
1336;SDS011;662;48.814;9.318;2023-03-05T13:05:16;21.57;;;14.87;;
1336;SDS011;662;48.814;9.318;2023-03-05T13:07:46;24.57;;;14.90;;
1336;SDS011;662;48.814;9.318;2023-03-05T13:10:30;24.40;;;15.20;;
1336;SDS011;662;48.814;9.318;2023-03-05T13:12:56;23.53;;;14.40;;
1336;SDS011;662;48.814;9.318;2023-03-05T13:15:23;21.83;;;14.23;;
1336;SDS011;662;48.814;9.318;2023-03-05T13:17:56;25.20;;;14.63;;
1336;SDS011;662;48.814;9.318;2023-03-05T13:20:32;18.90;;;13.43;;
1336;SDS011;662;48.814;9.318;2023-03-05T13:23:13;25.00;;;14.60;;
1336;SDS011;662;48.814;9.318;2023-03-05T13:28:36;21.47;;;15.43;;
1336;SDS011;662;48.814;9.318;2023-03-05T13:31:10;28.13;;;16.37;;
1336;SDS011;662;48.814;9.318;2023-03-05T13:33:38;32.23;;;17.60;;
1336;SDS011;662;48.814;9.318;2023-03-05T13:36:04;23.40;;;16.90;;
1336;SDS011;662;48.814;9.318;2023-03-05T13:38:42;25.03;;;16.93;;
1336;SDS011;662;48.814;9.318;2023-03-05T13:44:15;26.50;;;17.53;;
1336;SDS011;662;48.814;9.318;2023-03-05T13:46:29;27.97;;;16.70;;
1336;SDS011;662;48.814;9.318;2023-03-05T13:48:57;26.17;;;15.47;;
1336;SDS011;662;48.814;9.318;2023-03-05T13:51:51;25.30;;;16.60;;
1336;SDS011;662;48.814;9.318;2023-03-05T13:54:19;28.30;;;18.00;;
1336;SDS011;662;48.814;9.318;2023-03-05T13:56:59;28.13;;;17.93;;
1336;SDS011;662;48.814;9.318;2023-03-05T13:59:30;27.83;;;17.87;;
1336;SDS011;662;48.814;9.318;2023-03-05T14:01:59;26.27;;;18.27;;
1336;SDS011;662;48.814;9.318;2023-03-05T14:04:33;29.07;;;16.40;;
1336;SDS011;662;48.814;9.318;2023-03-05T14:07:05;23.93;;;15.73;;
1336;SDS011;662;48.814;9.318;2023-03-05T14:09:49;21.30;;;14.80;;
1336;SDS011;662;48.814;9.318;2023-03-05T14:15:20;23.10;;;14.20;;
1336;SDS011;662;48.814;9.318;2023-03-05T14:17:51;17.97;;;12.50;;
1336;SDS011;662;48.814;9.318;2023-03-05T14:20:31;21.00;;;14.10;;
1336;SDS011;662;48.814;9.318;2023-03-05T14:22:57;17.20;;;12.33;;
1336;SDS011;662;48.814;9.318;2023-03-05T14:25:29;22.07;;;13.27;;
1336;SDS011;662;48.814;9.318;2023-03-05T14:28:25;17.90;;;12.73;;
1336;SDS011;662;48.814;9.318;2023-03-05T14:30:53;20.60;;;13.87;;
1336;SDS011;662;48.814;9.318;2023-03-05T14:33:21;18.70;;;13.40;;
1336;SDS011;662;48.814;9.318;2023-03-05T14:35:56;21.60;;;14.63;;
1336;SDS011;662;48.814;9.318;2023-03-05T14:38:25;18.93;;;12.63;;
1336;SDS011;662;48.814;9.318;2023-03-05T14:40:53;18.60;;;13.57;;
1336;SDS011;662;48.814;9.318;2023-03-05T14:43:20;19.43;;;12.80;;
1336;SDS011;662;48.814;9.318;2023-03-05T14:45:45;18.33;;;12.90;;
1336;SDS011;662;48.814;9.318;2023-03-05T14:48:15;19.63;;;13.47;;
1336;SDS011;662;48.814;9.318;2023-03-05T14:50:52;21.17;;;13.43;;
1336;SDS011;662;48.814;9.318;2023-03-05T14:53:24;17.00;;;12.30;;
1336;SDS011;662;48.814;9.318;2023-03-05T14:55:59;22.17;;;14.07;;
1336;SDS011;662;48.814;9.318;2023-03-05T14:58:29;20.87;;;14.80;;
1336;SDS011;662;48.814;9.318;2023-03-05T15:00:59;22.97;;;14.17;;
1336;SDS011;662;48.814;9.318;2023-03-05T15:03:25;21.40;;;13.73;;
1336;SDS011;662;48.814;9.318;2023-03-05T15:05:52;17.93;;;13.73;;
1336;SDS011;662;48.814;9.318;2023-03-05T15:08:21;21.00;;;13.17;;
1336;SDS011;662;48.814;9.318;2023-03-05T15:10:49;22.50;;;13.87;;
1336;SDS011;662;48.814;9.318;2023-03-05T15:13:15;22.07;;;13.03;;
1336;SDS011;662;48.814;9.318;2023-03-05T15:15:41;21.73;;;14.10;;
1336;SDS011;662;48.814;9.318;2023-03-05T15:18:09;19.03;;;12.87;;
1336;SDS011;662;48.814;9.318;2023-03-05T15:20:37;23.10;;;14.90;;
1336;SDS011;662;48.814;9.318;2023-03-05T15:23:04;18.00;;;13.03;;
1336;SDS011;662;48.814;9.318;2023-03-05T15:25:29;20.93;;;13.77;;
1336;SDS011;662;48.814;9.318;2023-03-05T15:27:55;20.10;;;13.00;;
1336;SDS011;662;48.814;9.318;2023-03-05T15:30:28;17.07;;;12.03;;
1336;SDS011;662;48.814;9.318;2023-03-05T15:32:56;19.33;;;13.70;;
1336;SDS011;662;48.814;9.318;2023-03-05T15:35:24;20.63;;;13.30;;
1336;SDS011;662;48.814;9.318;2023-03-05T15:37:50;18.83;;;13.77;;
1336;SDS011;662;48.814;9.318;2023-03-05T15:40:17;19.87;;;14.27;;
1336;SDS011;662;48.814;9.318;2023-03-05T15:42:44;19.80;;;14.07;;
1336;SDS011;662;48.814;9.318;2023-03-05T15:45:11;20.20;;;12.73;;
1336;SDS011;662;48.814;9.318;2023-03-05T15:47:36;19.83;;;13.50;;
1336;SDS011;662;48.814;9.318;2023-03-05T15:50:03;21.40;;;13.73;;
1336;SDS011;662;48.814;9.318;2023-03-05T15:52:30;21.73;;;15.17;;
1336;SDS011;662;48.814;9.318;2023-03-05T15:54:55;22.40;;;14.27;;
1336;SDS011;662;48.814;9.318;2023-03-05T15:57:21;23.83;;;14.40;;
1336;SDS011;662;48.814;9.318;2023-03-05T15:59:47;21.77;;;14.57;;
1336;SDS011;662;48.814;9.318;2023-03-05T16:02:13;22.50;;;14.07;;
1336;SDS011;662;48.814;9.318;2023-03-05T16:04:39;17.53;;;13.10;;
1336;SDS011;662;48.814;9.318;2023-03-05T16:07:05;26.30;;;14.97;;
1336;SDS011;662;48.814;9.318;2023-03-05T16:09:34;22.50;;;14.60;;
1336;SDS011;662;48.814;9.318;2023-03-05T16:12:02;18.17;;;13.53;;
1336;SDS011;662;48.814;9.318;2023-03-05T16:14:32;21.00;;;14.00;;
1336;SDS011;662;48.814;9.318;2023-03-05T16:16:58;17.13;;;13.23;;
1336;SDS011;662;48.814;9.318;2023-03-05T16:19:27;21.77;;;15.00;;
1336;SDS011;662;48.814;9.318;2023-03-05T16:21:54;18.73;;;13.57;;
1336;SDS011;662;48.814;9.318;2023-03-05T16:24:20;18.17;;;13.73;;
1336;SDS011;662;48.814;9.318;2023-03-05T16:26:46;16.47;;;12.17;;
1336;SDS011;662;48.814;9.318;2023-03-05T16:29:12;21.13;;;13.33;;
1336;SDS011;662;48.814;9.318;2023-03-05T16:31:37;21.10;;;13.83;;
1336;SDS011;662;48.814;9.318;2023-03-05T16:34:05;21.10;;;13.40;;
1336;SDS011;662;48.814;9.318;2023-03-05T16:36:31;17.43;;;12.70;;